createdAt,value
2019-05-05T00:01:55.510Z,81.50
2019-05-05T00:04:42.207Z,81.70
2019-05-05T00:09:46.083Z,81.80
2019-05-05T00:12:22.399Z,81.70
2019-05-05T00:14:54.595Z,82.10
2019-05-05T00:17:25.004Z,81.90
2019-05-05T00:19:54.969Z,81.90
2019-05-05T00:22:24.548Z,82.30
2019-05-05T00:24:54.620Z,82.40
2019-05-05T00:27:25.286Z,81.90
2019-05-05T00:29:54.720Z,81.20
2019-05-05T00:32:24.483Z,80.80
2019-05-05T00:34:55.129Z,81.00
2019-05-05T00:37:25.592Z,81.60
2019-05-05T00:39:54.403Z,82.10
2019-05-05T00:42:24.711Z,82.70
2019-05-05T00:44:54.933Z,82.80
2019-05-05T00:47:37.207Z,82.80
2019-05-05T00:50:09.037Z,83.50
2019-05-05T00:52:37.578Z,82.90
2019-05-05T00:55:10.139Z,83.30
2019-05-05T00:57:38.754Z,83.00
2019-05-05T01:00:12.070Z,83.20
2019-05-05T01:02:42.331Z,83.00
2019-05-05T01:05:28.642Z,83.40
2019-05-05T01:07:57.763Z,83.70
2019-05-05T01:10:26.595Z,83.50
2019-05-05T01:12:55.618Z,83.30
2019-05-05T01:15:25.467Z,83.60
2019-05-05T01:17:55.266Z,83.90
2019-05-05T01:20:25.032Z,83.70
2019-05-05T01:22:55.354Z,84.00
2019-05-05T01:25:25.460Z,84.50
2019-05-05T01:27:54.650Z,84.10
2019-05-05T01:30:24.958Z,84.30
2019-05-05T01:33:07.002Z,84.00
2019-05-05T01:35:35.702Z,84.10
2019-05-05T01:38:05.987Z,84.30
2019-05-05T01:40:38.831Z,84.80
2019-05-05T01:43:07.793Z,84.70
2019-05-05T01:45:36.724Z,84.30
2019-05-05T01:48:05.439Z,84.10
2019-05-05T01:50:34.976Z,85.10
2019-05-05T01:53:04.787Z,84.80
2019-05-05T01:55:34.718Z,85.50
2019-05-05T01:58:04.846Z,84.90
2019-05-05T02:00:34.822Z,85.50
2019-05-05T02:03:04.562Z,85.80
2019-05-05T02:05:34.814Z,86.50
2019-05-05T02:08:04.962Z,87.00
2019-05-05T02:10:34.906Z,86.90
2019-05-05T02:13:04.762Z,87.20
2019-05-05T02:15:34.464Z,88.50
2019-05-05T02:18:04.583Z,88.70
2019-05-05T02:21:00.745Z,88.50
2019-05-05T02:23:29.440Z,87.60
2019-05-05T02:25:58.574Z,86.80
2019-05-05T02:28:29.226Z,86.30
2019-05-05T02:31:05.392Z,87.30
2019-05-05T02:33:35.370Z,86.80
2019-05-05T02:36:05.553Z,87.10
2019-05-05T02:38:35.514Z,87.50
2019-05-05T02:41:05.274Z,87.80
2019-05-05T02:43:36.227Z,89.00
2019-05-05T02:46:27.203Z,89.50
2019-05-05T02:48:58.687Z,89.70
2019-05-05T02:51:28.672Z,89.80
2019-05-05T02:53:59.330Z,89.60
2019-05-05T02:56:34.207Z,89.70
2019-05-05T02:59:07.638Z,90.30
2019-05-05T03:01:38.110Z,90.50
2019-05-05T03:04:08.549Z,90.80
2019-05-05T03:06:40.186Z,90.70
2019-05-05T03:09:09.217Z,90.60
2019-05-05T03:11:39.103Z,90.40
2019-05-05T03:14:10.171Z,90.50
2019-05-05T03:16:40.154Z,90.60
2019-05-05T03:19:10.647Z,90.70
2019-05-05T03:21:40.145Z,90.80
2019-05-05T03:24:10.141Z,90.80
2019-05-05T03:26:40.796Z,90.60
2019-05-05T03:29:13.736Z,90.30
2019-05-05T03:31:45.449Z,90.20
2019-05-05T03:34:16.344Z,89.90
2019-05-05T03:36:44.226Z,90.40
2019-05-05T03:39:24.290Z,90.30
2019-05-05T03:42:06.786Z,90.10
2019-05-05T03:44:55.472Z,90.40
2019-05-05T03:47:25.037Z,90.60
2019-05-05T03:49:54.424Z,90.40
2019-05-05T03:52:24.450Z,90.40
2019-05-05T03:54:54.184Z,90.40
2019-05-05T03:57:24.617Z,90.60
2019-05-05T03:59:54.746Z,90.70
2019-05-05T04:02:25.163Z,90.40
2019-05-05T04:04:55.358Z,90.60
2019-05-05T04:07:24.275Z,90.70
2019-05-05T04:09:54.278Z,90.80
2019-05-05T04:12:24.219Z,90.70
2019-05-05T04:14:54.628Z,90.70
2019-05-05T04:17:27.878Z,90.60
2019-05-05T04:19:58.055Z,90.90
2019-05-05T04:22:26.610Z,90.50
2019-05-05T04:24:55.184Z,90.80
2019-05-05T04:27:23.963Z,90.90
2019-05-05T04:29:54.521Z,90.50
2019-05-05T04:32:24.429Z,90.00
2019-05-05T04:34:54.311Z,89.90
2019-05-05T04:37:23.906Z,89.90
2019-05-05T04:39:53.741Z,90.00
2019-05-05T04:42:24.490Z,89.70
2019-05-05T04:44:53.911Z,89.40
2019-05-05T04:47:24.903Z,89.00
2019-05-05T04:49:55.162Z,89.30
2019-05-05T04:52:25.362Z,89.30
2019-05-05T04:54:55.727Z,89.50
2019-05-05T04:57:24.465Z,89.60
2019-05-05T04:59:54.124Z,89.00
2019-05-05T05:02:39.704Z,89.20
2019-05-05T05:05:19.458Z,90.00
2019-05-05T05:07:48.226Z,88.50
2019-05-05T05:10:16.846Z,87.80
2019-05-05T05:12:45.396Z,88.00
2019-05-05T05:15:14.894Z,87.20
2019-05-05T05:17:45.118Z,86.10
2019-05-05T05:20:14.420Z,86.50
2019-05-05T05:22:44.014Z,86.10
2019-05-05T05:25:13.687Z,85.30
2019-05-05T05:27:44.338Z,85.60
2019-05-05T05:30:13.933Z,84.90
2019-05-05T05:32:44.395Z,84.40
2019-05-05T05:35:14.106Z,83.80
2019-05-05T05:37:44.735Z,83.90
2019-05-05T05:40:18.959Z,83.50
2019-05-05T05:42:47.519Z,81.70
2019-05-05T05:45:20.468Z,82.50
2019-05-05T05:48:06.418Z,83.00
2019-05-05T05:50:36.606Z,81.40
2019-05-05T05:53:05.166Z,81.10
2019-05-05T05:55:34.299Z,81.10
2019-05-05T05:58:04.837Z,80.90
2019-05-05T06:00:34.418Z,79.80
2019-05-05T06:03:03.971Z,79.50
2019-05-05T06:05:34.507Z,79.00
2019-05-05T06:08:04.809Z,79.00
2019-05-05T06:10:34.003Z,76.20
2019-05-05T06:13:04.065Z,74.70
2019-05-05T06:15:33.749Z,74.80
2019-05-05T06:18:04.673Z,74.60
2019-05-05T06:20:34.354Z,73.50
2019-05-05T06:23:04.055Z,72.20
2019-05-05T06:25:34.247Z,70.30
2019-05-05T06:28:04.324Z,69.60
2019-05-05T06:30:33.767Z,69.70
2019-05-05T06:33:04.709Z,69.40
2019-05-05T06:35:33.857Z,68.60
2019-05-05T06:38:04.685Z,68.40
2019-05-05T06:40:50.904Z,65.80
2019-05-05T06:43:23.680Z,64.60
2019-05-05T06:45:58.378Z,63.70
2019-05-05T06:48:27.012Z,63.60
2019-05-05T06:50:55.558Z,64.20
2019-05-05T06:53:24.135Z,63.60
2019-05-05T06:55:54.283Z,62.60
2019-05-05T06:58:24.187Z,59.90
2019-05-05T07:00:54.317Z,59.40
2019-05-05T07:03:24.345Z,57.80
2019-05-05T07:05:53.912Z,56.60
2019-05-05T07:08:24.384Z,56.50
2019-05-05T07:10:54.772Z,55.50
2019-05-05T07:13:24.434Z,54.50
2019-05-05T07:15:54.268Z,55.10
2019-05-05T07:18:24.716Z,54.80
2019-05-05T07:20:54.516Z,55.90
2019-05-05T07:23:24.599Z,56.30
2019-05-05T07:25:54.988Z,56.30
2019-05-05T07:28:23.535Z,56.70
2019-05-05T07:30:52.320Z,57.30
2019-05-05T07:33:23.768Z,58.10
2019-05-05T07:36:00.301Z,55.90
2019-05-05T07:38:24.447Z,56.70
2019-05-05T07:40:54.546Z,57.30
2019-05-05T07:43:23.982Z,56.80
2019-05-05T07:45:53.997Z,57.10
2019-05-05T07:48:24.282Z,56.20
2019-05-05T07:51:01.581Z,56.20
2019-05-05T07:53:24.445Z,56.30
2019-05-05T07:55:54.180Z,56.40
2019-05-05T07:58:24.245Z,55.90
2019-05-05T08:00:54.140Z,56.10
2019-05-05T08:03:23.651Z,55.70
2019-05-05T08:05:54.393Z,56.30
2019-05-05T08:08:24.323Z,56.70
2019-05-05T08:10:54.163Z,56.50
2019-05-05T08:13:44.301Z,57.20
2019-05-05T08:16:24.255Z,57.10
2019-05-05T08:18:57.654Z,56.70
2019-05-05T08:21:26.278Z,57.30
2019-05-05T08:23:56.475Z,57.00
2019-05-05T08:26:33.674Z,57.30
2019-05-05T08:29:20.532Z,55.90
2019-05-05T08:31:59.490Z,55.80
2019-05-05T08:34:28.053Z,55.70
2019-05-05T08:36:59.696Z,54.90
2019-05-05T08:39:26.818Z,54.10
2019-05-05T08:41:55.374Z,54.90
2019-05-05T08:44:24.003Z,53.70
2019-05-05T08:46:53.798Z,53.30
2019-05-05T08:49:24.397Z,51.80
2019-05-05T08:51:58.795Z,52.00
2019-05-05T08:54:27.362Z,51.60
2019-05-05T08:56:55.991Z,49.40
2019-05-05T08:59:24.679Z,48.60
2019-05-05T09:01:54.126Z,48.70
2019-05-05T09:04:24.690Z,47.70
2019-05-05T09:06:54.338Z,48.00
2019-05-05T09:09:24.158Z,47.30
2019-05-05T09:11:54.188Z,46.70
2019-05-05T09:14:24.015Z,46.20
2019-05-05T09:16:53.736Z,46.30
2019-05-05T09:19:24.024Z,47.80
2019-05-05T09:21:54.140Z,48.10
2019-05-05T09:24:27.012Z,48.10
2019-05-05T09:26:57.299Z,50.40
2019-05-05T09:29:34.735Z,49.20
2019-05-05T09:32:04.059Z,48.80
2019-05-05T09:34:34.079Z,51.00
2019-05-05T09:37:04.771Z,50.70
2019-05-05T09:39:34.610Z,50.00
2019-05-05T09:42:04.115Z,46.50
2019-05-05T09:44:34.633Z,48.10
2019-05-05T09:47:04.791Z,46.60
2019-05-05T09:49:33.914Z,43.70
2019-05-05T09:52:04.810Z,45.80
2019-05-05T09:54:34.518Z,44.20
2019-05-05T09:57:04.485Z,45.90
2019-05-05T09:59:34.651Z,44.10
2019-05-05T10:02:04.499Z,43.40
2019-05-05T10:04:35.634Z,43.00
2019-05-05T10:07:04.611Z,45.20
2019-05-05T10:09:34.450Z,45.90
2019-05-05T10:12:04.729Z,43.30
2019-05-05T10:14:34.265Z,43.10
2019-05-05T10:17:04.966Z,43.50
2019-05-05T10:19:33.401Z,45.10
2019-05-05T10:22:03.899Z,40.80
2019-05-05T10:24:34.072Z,45.80
2019-05-05T10:27:04.960Z,51.10
2019-05-05T10:29:33.288Z,53.10
2019-05-05T10:32:01.851Z,55.40
2019-05-05T10:34:30.470Z,57.80
2019-05-05T10:36:59.102Z,58.30
2019-05-05T10:39:29.895Z,57.10
2019-05-05T10:41:58.471Z,56.00
2019-05-05T10:44:27.019Z,59.00
2019-05-05T10:46:55.617Z,60.70
2019-05-05T10:49:24.487Z,60.60
2019-05-05T10:51:54.369Z,60.00
2019-05-05T10:54:23.716Z,61.70
2019-05-05T10:56:52.530Z,62.40
2019-05-05T10:59:21.092Z,64.80
2019-05-05T11:01:50.126Z,65.80
2019-05-05T11:04:18.683Z,67.20
2019-05-05T11:06:47.299Z,65.00
2019-05-05T11:09:15.884Z,65.00
2019-05-05T11:11:44.425Z,66.20
2019-05-05T11:14:14.183Z,66.80
2019-05-05T11:16:43.903Z,67.30
2019-05-05T11:19:13.672Z,68.00
2019-05-05T11:21:43.539Z,68.90
2019-05-05T11:24:14.568Z,69.90
2019-05-05T11:26:44.576Z,70.60
2019-05-05T11:29:13.639Z,72.50
2019-05-05T11:31:42.553Z,72.20
2019-05-05T11:34:18.772Z,71.90
2019-05-05T11:36:57.764Z,71.50
2019-05-05T11:39:26.388Z,72.40
2019-05-05T11:41:55.007Z,72.80
2019-05-05T11:44:24.240Z,77.30
2019-05-05T11:46:54.751Z,76.30
2019-05-05T11:49:24.532Z,79.00
2019-05-05T11:51:54.140Z,80.50
2019-05-05T11:54:24.510Z,76.30
2019-05-05T11:56:53.920Z,76.30
2019-05-05T11:59:23.725Z,73.50
2019-05-05T12:01:54.968Z,69.50
2019-05-05T12:04:23.925Z,69.30
2019-05-05T12:06:52.657Z,64.90
2019-05-05T12:09:24.725Z,62.00
2019-05-05T12:11:54.533Z,62.40
2019-05-05T12:14:27.134Z,62.80
2019-05-05T12:16:55.271Z,65.20
2019-05-05T12:19:24.330Z,64.20
2019-05-05T12:21:54.751Z,66.50
2019-05-05T12:24:25.262Z,67.40
2019-05-05T12:27:04.115Z,69.90
2019-05-05T12:29:34.462Z,69.60
2019-05-05T12:32:03.056Z,66.20
2019-05-05T12:34:31.626Z,69.40
2019-05-05T12:37:00.207Z,72.40
2019-05-05T12:39:28.764Z,72.30
2019-05-05T12:41:57.328Z,73.20
2019-05-05T12:44:27.551Z,73.10
2019-05-05T12:46:57.734Z,68.60
2019-05-05T12:49:26.363Z,66.80
2019-05-05T12:51:54.932Z,66.90
2019-05-05T12:54:24.578Z,67.00
2019-05-05T12:56:53.986Z,67.00
2019-05-05T12:59:24.989Z,65.90
2019-05-05T13:01:54.930Z,66.60
2019-05-05T13:04:24.547Z,67.00
2019-05-05T13:06:54.165Z,60.90
2019-05-05T13:09:24.330Z,58.10
2019-05-05T13:11:54.212Z,55.30
2019-05-05T13:14:23.050Z,53.20
2019-05-05T13:16:55.327Z,52.10
2019-05-05T13:19:24.185Z,48.60
2019-05-05T13:21:54.806Z,49.60
2019-05-05T13:24:24.981Z,46.70
2019-05-05T13:26:57.734Z,46.00
2019-05-05T13:29:26.300Z,45.60
2019-05-05T13:31:54.853Z,44.50
2019-05-05T13:34:23.472Z,42.50
2019-05-05T13:36:52.119Z,43.10
2019-05-05T13:39:20.950Z,43.50
2019-05-05T13:41:49.507Z,41.90
2019-05-05T13:44:19.770Z,43.10
2019-05-05T13:46:48.336Z,43.60
2019-05-05T13:49:30.501Z,43.20
2019-05-05T13:52:00.682Z,45.50
2019-05-05T13:54:29.248Z,44.80
2019-05-05T13:56:57.827Z,46.30
2019-05-05T13:59:26.391Z,46.80
2019-05-05T14:01:55.014Z,46.40
2019-05-05T14:04:23.725Z,47.80
2019-05-05T14:06:54.322Z,47.30
2019-05-05T14:09:22.571Z,45.90
2019-05-05T14:11:51.133Z,47.10
2019-05-05T14:14:19.704Z,47.30
2019-05-05T14:16:48.265Z,47.50
2019-05-05T14:19:16.858Z,48.80
2019-05-05T14:21:45.436Z,49.30
2019-05-05T14:24:24.760Z,50.90
2019-05-05T14:26:54.235Z,52.50
2019-05-05T14:29:40.079Z,50.10
2019-05-05T14:32:09.916Z,49.80
2019-05-05T14:34:40.118Z,47.70
2019-05-05T14:37:28.802Z,48.60
2019-05-05T14:39:57.431Z,50.00
2019-05-05T14:42:25.970Z,49.90
2019-05-05T14:44:54.692Z,49.50
2019-05-05T14:47:24.486Z,48.60
2019-05-05T14:49:54.045Z,49.20
2019-05-05T14:52:24.518Z,47.70
2019-05-05T14:54:54.391Z,48.80
2019-05-05T14:57:25.196Z,48.60
2019-05-05T14:59:54.099Z,48.90
2019-05-05T15:02:24.278Z,50.50
2019-05-05T15:04:54.943Z,50.70
2019-05-05T15:07:37.582Z,51.60
2019-05-05T15:10:25.225Z,51.20
2019-05-05T15:12:55.552Z,51.70
2019-05-05T15:15:43.746Z,51.60
2019-05-05T15:18:14.498Z,51.40
2019-05-05T15:20:44.046Z,50.90
2019-05-05T15:23:13.458Z,49.10
2019-05-05T15:25:44.528Z,48.70
2019-05-05T15:28:13.844Z,48.80
2019-05-05T15:30:44.108Z,48.40
2019-05-05T15:33:13.882Z,47.20
2019-05-05T15:35:46.426Z,47.10
2019-05-05T15:38:14.706Z,45.80
2019-05-05T15:40:44.974Z,45.90
2019-05-05T15:43:14.339Z,46.80
2019-05-05T15:45:43.994Z,46.80
2019-05-05T15:48:13.989Z,46.70
2019-05-05T15:50:43.983Z,46.40
2019-05-05T15:53:14.394Z,45.50
2019-05-05T15:55:43.820Z,46.30
2019-05-05T15:58:14.010Z,51.00
2019-05-05T16:00:44.330Z,50.80
2019-05-05T16:03:13.568Z,52.20
2019-05-05T16:05:43.630Z,51.20
2019-05-05T16:08:28.401Z,52.90
2019-05-05T16:21:55.299Z,47.20
2019-05-05T16:24:39.706Z,43.00
2019-05-05T16:27:21.224Z,40.20
2019-05-05T16:29:38.682Z,39.40
2019-05-05T16:32:17.846Z,40.00
2019-05-05T16:34:37.772Z,40.60
2019-05-05T16:37:06.409Z,41.50
2019-05-05T16:39:35.106Z,39.10
2019-05-05T16:42:03.742Z,41.90
2019-05-05T16:44:34.075Z,46.30
2019-05-05T16:47:04.729Z,48.40
2019-05-05T16:49:35.296Z,50.90
2019-05-05T16:52:05.013Z,56.40
2019-05-05T16:54:35.306Z,57.60
2019-05-05T16:57:05.758Z,48.60
2019-05-05T16:59:34.183Z,45.70
2019-05-05T17:02:04.715Z,48.00
2019-05-05T17:04:35.534Z,50.40
2019-05-05T17:07:04.190Z,57.60
2019-05-05T17:09:34.431Z,60.90
2019-05-05T17:12:08.967Z,59.90
2019-05-05T17:14:40.611Z,61.40
2019-05-05T17:17:14.366Z,66.10
2019-05-05T17:19:45.230Z,67.50
2019-05-05T17:22:20.970Z,68.30
2019-05-05T17:24:50.015Z,66.80
2019-05-05T17:27:18.566Z,66.90
2019-05-05T17:29:47.166Z,66.50
2019-05-05T17:32:16.199Z,67.10
2019-05-05T17:34:44.962Z,67.00
2019-05-05T17:37:13.735Z,67.30
2019-05-05T17:39:45.953Z,68.10
2019-05-05T17:42:16.133Z,68.00
2019-05-05T17:44:46.386Z,68.10
2019-05-05T17:47:24.348Z,68.10
2019-05-05T17:49:59.777Z,68.50
2019-05-05T17:52:30.221Z,68.60
2019-05-05T17:54:59.634Z,68.60
2019-05-05T17:57:28.190Z,69.20
2019-05-05T17:59:56.772Z,69.30
2019-05-05T18:02:25.395Z,69.80
2019-05-05T18:04:54.264Z,70.30
2019-05-05T18:07:27.516Z,70.40
2019-05-05T18:10:09.826Z,71.70
2019-05-05T18:12:40.006Z,71.60
2019-05-05T18:15:28.727Z,70.90
2019-05-05T18:17:57.423Z,71.20
2019-05-05T18:20:26.046Z,71.40
2019-05-05T18:22:54.595Z,71.60
2019-05-05T18:25:23.853Z,71.70
2019-05-05T18:27:52.393Z,72.10
2019-05-05T18:30:24.049Z,71.80
2019-05-05T18:32:53.485Z,71.50
2019-05-05T18:35:24.152Z,72.60
2019-05-05T18:37:54.338Z,71.80
2019-05-05T18:40:24.103Z,71.60
2019-05-05T18:42:54.357Z,71.20
2019-05-05T18:45:23.780Z,70.70
2019-05-05T18:47:53.769Z,70.90
2019-05-05T18:50:24.322Z,71.20
2019-05-05T18:52:53.792Z,71.50
2019-05-05T18:55:22.764Z,70.90
2019-05-05T18:57:51.301Z,70.10
2019-05-05T19:00:24.832Z,70.00
2019-05-05T19:02:57.726Z,70.60
2019-05-05T19:05:27.963Z,70.20
2019-05-05T19:10:34.334Z,70.80
2019-05-05T19:13:02.918Z,70.90
2019-05-05T19:15:32.047Z,71.20
2019-05-05T19:18:00.692Z,71.40
2019-05-05T19:20:35.208Z,71.50
2019-05-05T19:23:05.830Z,71.30
2019-05-05T19:25:35.692Z,71.90
2019-05-05T19:28:04.915Z,72.70
2019-05-05T19:30:36.092Z,72.20
2019-05-05T19:33:05.600Z,72.40
2019-05-05T19:35:43.546Z,72.10
2019-05-05T19:38:04.915Z,71.70
2019-05-05T19:40:34.045Z,72.30
2019-05-05T19:43:04.758Z,72.30
2019-05-05T19:45:34.460Z,73.00
2019-05-05T19:48:05.588Z,73.30
2019-05-05T19:50:37.699Z,73.30
2019-05-05T19:53:07.892Z,73.90
2019-05-05T19:55:36.542Z,74.80
2019-05-05T19:58:05.431Z,74.30
2019-05-05T20:00:35.148Z,74.80
2019-05-05T20:03:05.154Z,74.80
2019-05-05T20:05:34.363Z,74.90
2019-05-05T20:08:03.913Z,74.30
2019-05-05T20:10:32.835Z,74.80
2019-05-05T20:13:01.475Z,75.20
2019-05-05T20:15:40.762Z,75.80
2019-05-05T20:18:09.424Z,76.00
2019-05-05T20:20:37.979Z,75.20
2019-05-05T20:23:06.527Z,74.70
2019-05-05T20:25:35.119Z,74.70
2019-05-05T20:28:04.148Z,74.90
2019-05-05T20:30:34.229Z,74.50
2019-05-05T20:33:04.785Z,74.90
2019-05-05T20:35:42.530Z,75.30
2019-05-05T20:38:14.273Z,75.10
2019-05-05T20:40:44.506Z,75.20
2019-05-05T20:43:14.330Z,75.80
2019-05-05T20:45:44.244Z,75.10
2019-05-05T20:48:13.305Z,75.10
2019-05-05T20:50:43.766Z,74.80
2019-05-05T20:53:13.624Z,75.20
2019-05-05T20:55:44.597Z,76.20
2019-05-05T20:58:14.146Z,76.60
2019-05-05T21:00:44.217Z,77.60
2019-05-05T21:03:14.188Z,78.00
2019-05-05T21:05:44.035Z,78.40
2019-05-05T21:08:14.144Z,78.90
2019-05-05T21:10:44.265Z,77.70
2019-05-05T21:13:14.375Z,77.10
2019-05-05T21:15:45.032Z,77.20
2019-05-05T21:18:14.361Z,77.20
2019-05-05T21:20:43.623Z,77.10
2019-05-05T21:23:16.726Z,77.20
2019-05-05T21:25:49.537Z,76.40
2019-05-05T21:28:18.140Z,77.70
2019-05-05T21:30:46.742Z,78.40
2019-05-05T21:33:15.371Z,78.90
2019-05-05T21:35:44.184Z,79.00
2019-05-05T21:38:14.265Z,79.80
2019-05-05T21:40:44.012Z,79.70
2019-05-05T21:43:12.733Z,79.70
2019-05-05T21:45:41.296Z,80.00
2019-05-05T21:48:09.848Z,80.40
2019-05-05T21:50:40.142Z,80.20
2019-05-05T21:53:10.360Z,79.50
2019-05-05T21:55:49.372Z,79.60
2019-05-05T21:58:35.478Z,80.00
2019-05-05T22:01:09.131Z,80.30
2019-05-05T22:03:38.415Z,80.50
2019-05-05T22:06:07.119Z,80.40
2019-05-05T22:08:36.460Z,80.30
2019-05-05T22:11:06.296Z,79.50
2019-05-05T22:13:36.628Z,80.50
2019-05-05T22:16:05.587Z,81.30
2019-05-05T22:18:34.130Z,81.00
2019-05-05T22:21:16.423Z,82.20
2019-05-05T22:23:46.685Z,81.60
2019-05-05T22:26:15.238Z,80.10
2019-05-05T22:28:44.655Z,80.40
2019-05-05T22:31:14.201Z,82.60
2019-05-05T22:33:44.710Z,85.80
2019-05-05T22:36:14.061Z,88.90
2019-05-05T22:38:44.623Z,90.20
2019-05-05T22:41:13.263Z,90.40
2019-05-05T22:43:44.252Z,91.00
2019-05-05T22:46:14.151Z,90.80
2019-05-05T22:48:44.021Z,90.10
2019-05-05T22:51:14.449Z,89.10
2019-05-05T22:53:44.116Z,89.70
2019-05-05T22:56:14.644Z,88.50
2019-05-05T22:58:43.939Z,87.80
2019-05-05T23:01:13.589Z,87.30
2019-05-05T23:04:00.016Z,87.70
2019-05-05T23:06:45.049Z,89.30
2019-05-05T23:09:14.757Z,89.50
2019-05-05T23:11:44.107Z,90.00
2019-05-05T23:14:28.148Z,89.50
2019-05-05T23:17:06.228Z,89.90
2019-05-05T23:19:36.735Z,89.10
2019-05-05T23:22:06.936Z,89.50
2019-05-05T23:24:37.125Z,89.30
2019-05-05T23:27:05.735Z,90.40
2019-05-05T23:29:34.294Z,89.50
2019-05-05T23:32:02.926Z,88.60
2019-05-05T23:34:33.718Z,87.30
2019-05-05T23:37:01.728Z,87.00
2019-05-05T23:39:30.298Z,87.30
2019-05-05T23:41:58.866Z,88.00
2019-05-05T23:44:27.362Z,88.80
2019-05-05T23:46:55.919Z,89.40
2019-05-05T23:49:24.504Z,89.90
2019-05-05T23:51:53.981Z,88.90
2019-05-05T23:54:24.673Z,88.50
2019-05-05T23:56:53.890Z,88.60
2019-05-05T23:59:24.133Z,88.00
